sensor_id;sensor_type;location;lat;lon;timestamp;P1;durP1;ratioP1;P2;durP2;ratioP2
53688;SDS011;39583;54.682;30.662;2022-08-21T06:44:27;210.95;;;194.93;;
53688;SDS011;39583;54.682;30.662;2022-08-21T06:46:53;284.08;;;262.00;;
53688;SDS011;39583;54.682;30.662;2022-08-21T06:49:20;181.23;;;168.77;;
53688;SDS011;39583;54.682;30.662;2022-08-21T06:51:46;116.47;;;108.20;;
53688;SDS011;39583;54.682;30.662;2022-08-21T06:54:12;61.60;;;57.35;;
53688;SDS011;39583;54.682;30.662;2022-08-21T06:56:38;49.97;;;46.67;;
53688;SDS011;39583;54.682;30.662;2022-08-21T06:59:05;33.70;;;31.35;;
53688;SDS011;39583;54.682;30.662;2022-08-21T07:01:32;37.40;;;34.88;;
53688;SDS011;39583;54.682;30.662;2022-08-21T07:03:58;22.95;;;21.30;;
53688;SDS011;39583;54.682;30.662;2022-08-21T07:06:24;26.63;;;24.95;;
53688;SDS011;39583;54.682;30.662;2022-08-21T07:08:51;30.35;;;28.42;;
53688;SDS011;39583;54.682;30.662;2022-08-21T07:11:18;20.08;;;18.38;;
53688;SDS011;39583;54.682;30.662;2022-08-21T07:13:46;17.23;;;15.75;;
53688;SDS011;39583;54.682;30.662;2022-08-21T07:16:12;13.63;;;12.23;;
53688;SDS011;39583;54.682;30.662;2022-08-21T07:18:38;16.08;;;12.75;;
53688;SDS011;39583;54.682;30.662;2022-08-21T07:21:05;16.38;;;14.82;;
53688;SDS011;39583;54.682;30.662;2022-08-21T07:23:34;18.33;;;16.58;;
53688;SDS011;39583;54.682;30.662;2022-08-21T07:26:03;15.73;;;14.13;;
53688;SDS011;39583;54.682;30.662;2022-08-21T07:28:30;13.45;;;12.43;;
53688;SDS011;39583;54.682;30.662;2022-08-21T07:30:58;12.70;;;11.70;;
53688;SDS011;39583;54.682;30.662;2022-08-21T07:33:26;13.15;;;12.10;;
53688;SDS011;39583;54.682;30.662;2022-08-21T07:35:53;13.52;;;12.52;;
53688;SDS011;39583;54.682;30.662;2022-08-21T07:38:20;11.75;;;10.90;;
53688;SDS011;39583;54.682;30.662;2022-08-21T07:40:47;13.90;;;12.27;;
53688;SDS011;39583;54.682;30.662;2022-08-21T07:43:15;13.48;;;12.32;;
53688;SDS011;39583;54.682;30.662;2022-08-21T07:45:43;14.05;;;12.57;;
53688;SDS011;39583;54.682;30.662;2022-08-21T07:48:10;14.90;;;13.73;;
53688;SDS011;39583;54.682;30.662;2022-08-21T07:50:37;14.13;;;12.93;;
53688;SDS011;39583;54.682;30.662;2022-08-21T07:53:04;17.40;;;13.75;;
53688;SDS011;39583;54.682;30.662;2022-08-21T07:55:31;13.43;;;12.20;;
53688;SDS011;39583;54.682;30.662;2022-08-21T07:57:57;17.20;;;15.63;;
53688;SDS011;39583;54.682;30.662;2022-08-21T08:00:24;13.55;;;12.07;;
53688;SDS011;39583;54.682;30.662;2022-08-21T08:02:52;14.75;;;12.27;;
53688;SDS011;39583;54.682;30.662;2022-08-21T08:05:21;11.60;;;10.50;;
53688;SDS011;39583;54.682;30.662;2022-08-21T08:07:51;12.13;;;8.00;;
53688;SDS011;39583;54.682;30.662;2022-08-21T08:10:17;17.42;;;8.95;;
53688;SDS011;39583;54.682;30.662;2022-08-21T08:12:44;12.80;;;10.23;;
53688;SDS011;39583;54.682;30.662;2022-08-21T08:15:13;13.20;;;6.13;;
53688;SDS011;39583;54.682;30.662;2022-08-21T08:17:41;12.98;;;5.20;;
53688;SDS011;39583;54.682;30.662;2022-08-21T08:20:08;11.93;;;8.63;;
53688;SDS011;39583;54.682;30.662;2022-08-21T08:22:36;15.80;;;8.15;;
53688;SDS011;39583;54.682;30.662;2022-08-21T08:25:05;14.93;;;6.65;;
53688;SDS011;39583;54.682;30.662;2022-08-21T08:27:32;6.30;;;5.68;;
53688;SDS011;39583;54.682;30.662;2022-08-21T08:29:58;9.93;;;6.57;;
53688;SDS011;39583;54.682;30.662;2022-08-21T08:32:25;9.65;;;4.93;;
53688;SDS011;39583;54.682;30.662;2022-08-21T08:34:51;8.25;;;6.03;;
53688;SDS011;39583;54.682;30.662;2022-08-21T08:37:18;10.25;;;6.88;;
53688;SDS011;39583;54.682;30.662;2022-08-21T08:39:45;7.55;;;5.80;;
53688;SDS011;39583;54.682;30.662;2022-08-21T08:42:14;7.95;;;6.60;;
53688;SDS011;39583;54.682;30.662;2022-08-21T08:47:12;9.57;;;5.25;;
53688;SDS011;39583;54.682;30.662;2022-08-21T08:52:31;9.52;;;4.50;;
53688;SDS011;39583;54.682;30.662;2022-08-21T08:55:15;12.85;;;7.25;;
53688;SDS011;39583;54.682;30.662;2022-08-21T08:57:46;13.85;;;5.15;;
53688;SDS011;39583;54.682;30.662;2022-08-21T09:00:16;13.18;;;6.22;;
53688;SDS011;39583;54.682;30.662;2022-08-21T09:02:45;7.15;;;6.20;;
53688;SDS011;39583;54.682;30.662;2022-08-21T09:05:23;12.15;;;5.22;;
53688;SDS011;39583;54.682;30.662;2022-08-21T09:11:02;8.25;;;5.63;;
53688;SDS011;39583;54.682;30.662;2022-08-21T09:16:45;9.57;;;5.18;;
53688;SDS011;39583;54.682;30.662;2022-08-21T09:22:23;7.80;;;4.55;;
53688;SDS011;39583;54.682;30.662;2022-08-21T09:27:37;16.15;;;6.00;;
53688;SDS011;39583;54.682;30.662;2022-08-21T09:30:04;12.68;;;5.38;;
53688;SDS011;39583;54.682;30.662;2022-08-21T09:32:32;17.90;;;16.02;;
53688;SDS011;39583;54.682;30.662;2022-08-21T09:37:46;13.43;;;4.47;;
53688;SDS011;39583;54.682;30.662;2022-08-21T09:40:38;12.02;;;4.40;;
53688;SDS011;39583;54.682;30.662;2022-08-21T09:45:35;24.10;;;18.63;;
53688;SDS011;39583;54.682;30.662;2022-08-21T09:48:09;21.90;;;7.65;;
53688;SDS011;39583;54.682;30.662;2022-08-21T09:50:40;19.33;;;13.45;;
53688;SDS011;39583;54.682;30.662;2022-08-21T09:53:18;11.45;;;4.70;;
53688;SDS011;39583;54.682;30.662;2022-08-21T09:55:51;13.18;;;4.95;;
53688;SDS011;39583;54.682;30.662;2022-08-21T09:58:40;19.95;;;17.85;;
53688;SDS011;39583;54.682;30.662;2022-08-21T10:01:17;7.57;;;4.30;;
53688;SDS011;39583;54.682;30.662;2022-08-21T10:03:46;12.65;;;4.57;;
53688;SDS011;39583;54.682;30.662;2022-08-21T10:06:24;12.35;;;4.68;;
53688;SDS011;39583;54.682;30.662;2022-08-21T10:09:03;17.48;;;4.40;;
53688;SDS011;39583;54.682;30.662;2022-08-21T10:11:31;12.73;;;4.60;;
53688;SDS011;39583;54.682;30.662;2022-08-21T10:14:01;17.02;;;5.28;;
53688;SDS011;39583;54.682;30.662;2022-08-21T10:17:01;23.95;;;21.60;;
53688;SDS011;39583;54.682;30.662;2022-08-21T10:19:41;15.55;;;5.45;;
53688;SDS011;39583;54.682;30.662;2022-08-21T10:22:21;15.60;;;7.78;;
53688;SDS011;39583;54.682;30.662;2022-08-21T10:25:18;17.80;;;5.40;;
53688;SDS011;39583;54.682;30.662;2022-08-21T10:30:26;8.23;;;4.70;;
53688;SDS011;39583;54.682;30.662;2022-08-21T10:33:03;9.75;;;4.10;;
53688;SDS011;39583;54.682;30.662;2022-08-21T10:35:49;12.45;;;4.47;;
53688;SDS011;39583;54.682;30.662;2022-08-21T10:44:08;10.52;;;4.13;;
53688;SDS011;39583;54.682;30.662;2022-08-21T10:47:03;13.70;;;9.82;;
53688;SDS011;39583;54.682;30.662;2022-08-21T10:55:24;12.52;;;4.85;;
53688;SDS011;39583;54.682;30.662;2022-08-21T10:58:04;10.95;;;5.65;;
53688;SDS011;39583;54.682;30.662;2022-08-21T11:03:48;8.18;;;4.82;;
53688;SDS011;39583;54.682;30.662;2022-08-21T11:06:27;5.95;;;4.10;;
53688;SDS011;39583;54.682;30.662;2022-08-21T11:08:58;8.15;;;4.15;;
53688;SDS011;39583;54.682;30.662;2022-08-21T11:14:19;8.27;;;5.25;;
53688;SDS011;39583;54.682;30.662;2022-08-21T11:17:01;15.57;;;4.47;;
53688;SDS011;39583;54.682;30.662;2022-08-21T11:24:42;37.85;;;34.78;;
53688;SDS011;39583;54.682;30.662;2022-08-21T11:27:33;16.85;;;4.25;;
53688;SDS011;39583;54.682;30.662;2022-08-21T11:30:07;9.75;;;4.78;;
53688;SDS011;39583;54.682;30.662;2022-08-21T11:32:45;7.45;;;3.38;;
53688;SDS011;39583;54.682;30.662;2022-08-21T11:35:38;11.23;;;7.55;;
53688;SDS011;39583;54.682;30.662;2022-08-21T11:38:29;7.20;;;4.15;;
53688;SDS011;39583;54.682;30.662;2022-08-21T11:43:47;9.23;;;4.15;;
53688;SDS011;39583;54.682;30.662;2022-08-21T11:49:03;6.72;;;4.75;;
53688;SDS011;39583;54.682;30.662;2022-08-21T11:51:33;16.30;;;8.90;;
53688;SDS011;39583;54.682;30.662;2022-08-21T11:54:10;8.60;;;4.25;;
53688;SDS011;39583;54.682;30.662;2022-08-21T11:56:41;13.38;;;5.05;;
53688;SDS011;39583;54.682;30.662;2022-08-21T11:59:18;9.93;;;4.18;;
53688;SDS011;39583;54.682;30.662;2022-08-21T12:01:51;8.20;;;6.15;;
53688;SDS011;39583;54.682;30.662;2022-08-21T12:04:25;25.35;;;23.48;;
53688;SDS011;39583;54.682;30.662;2022-08-21T12:07:11;13.80;;;11.82;;
53688;SDS011;39583;54.682;30.662;2022-08-21T12:09:40;18.27;;;5.05;;
53688;SDS011;39583;54.682;30.662;2022-08-21T12:15:02;14.50;;;13.23;;
53688;SDS011;39583;54.682;30.662;2022-08-21T12:17:36;6.68;;;4.55;;
53688;SDS011;39583;54.682;30.662;2022-08-21T12:23:03;9.05;;;4.43;;
53688;SDS011;39583;54.682;30.662;2022-08-21T12:25:44;10.15;;;5.80;;
53688;SDS011;39583;54.682;30.662;2022-08-21T12:28:26;15.35;;;5.97;;
53688;SDS011;39583;54.682;30.662;2022-08-21T12:30:54;7.53;;;5.47;;
53688;SDS011;39583;54.682;30.662;2022-08-21T12:33:25;9.65;;;4.43;;
53688;SDS011;39583;54.682;30.662;2022-08-21T12:36:29;11.57;;;7.50;;
53688;SDS011;39583;54.682;30.662;2022-08-21T12:38:57;8.73;;;4.20;;
53688;SDS011;39583;54.682;30.662;2022-08-21T12:41:29;10.73;;;5.07;;
53688;SDS011;39583;54.682;30.662;2022-08-21T12:46:51;11.40;;;5.07;;
53688;SDS011;39583;54.682;30.662;2022-08-21T12:55:14;12.70;;;3.75;;
53688;SDS011;39583;54.682;30.662;2022-08-21T12:57:51;16.30;;;4.78;;
53688;SDS011;39583;54.682;30.662;2022-08-21T13:00:20;15.95;;;8.20;;
53688;SDS011;39583;54.682;30.662;2022-08-21T13:02:48;16.42;;;4.43;;
53688;SDS011;39583;54.682;30.662;2022-08-21T13:05:19;11.15;;;4.53;;
53688;SDS011;39583;54.682;30.662;2022-08-21T13:07:54;16.33;;;5.53;;
53688;SDS011;39583;54.682;30.662;2022-08-21T13:10:22;12.32;;;4.80;;
53688;SDS011;39583;54.682;30.662;2022-08-21T13:13:02;16.27;;;5.45;;
53688;SDS011;39583;54.682;30.662;2022-08-21T13:15:32;18.63;;;3.67;;
53688;SDS011;39583;54.682;30.662;2022-08-21T13:18:01;13.05;;;4.03;;
53688;SDS011;39583;54.682;30.662;2022-08-21T13:20:34;12.48;;;3.40;;
53688;SDS011;39583;54.682;30.662;2022-08-21T13:23:06;16.10;;;6.05;;
53688;SDS011;39583;54.682;30.662;2022-08-21T13:26:11;15.98;;;4.53;;
53688;SDS011;39583;54.682;30.662;2022-08-21T13:28:42;12.98;;;7.03;;
53688;SDS011;39583;54.682;30.662;2022-08-21T13:31:09;19.60;;;16.90;;
53688;SDS011;39583;54.682;30.662;2022-08-21T13:33:36;14.68;;;5.25;;
53688;SDS011;39583;54.682;30.662;2022-08-21T13:36:11;15.95;;;13.43;;
53688;SDS011;39583;54.682;30.662;2022-08-21T13:39:12;16.00;;;4.72;;
53688;SDS011;39583;54.682;30.662;2022-08-21T13:41:44;10.90;;;6.13;;
53688;SDS011;39583;54.682;30.662;2022-08-21T13:44:18;27.17;;;5.68;;
53688;SDS011;39583;54.682;30.662;2022-08-21T13:46:52;11.48;;;4.45;;
53688;SDS011;39583;54.682;30.662;2022-08-21T13:49:21;22.00;;;17.50;;
53688;SDS011;39583;54.682;30.662;2022-08-21T13:51:54;13.30;;;4.88;;
53688;SDS011;39583;54.682;30.662;2022-08-21T13:54:26;15.02;;;4.28;;
53688;SDS011;39583;54.682;30.662;2022-08-21T13:56:55;10.95;;;4.55;;
53688;SDS011;39583;54.682;30.662;2022-08-21T13:59:28;12.27;;;5.03;;
53688;SDS011;39583;54.682;30.662;2022-08-21T14:01:57;18.40;;;10.13;;
53688;SDS011;39583;54.682;30.662;2022-08-21T14:04:32;16.43;;;9.77;;
53688;SDS011;39583;54.682;30.662;2022-08-21T14:07:14;14.20;;;12.70;;
53688;SDS011;39583;54.682;30.662;2022-08-21T14:09:44;12.25;;;3.63;;
53688;SDS011;39583;54.682;30.662;2022-08-21T14:14:42;20.83;;;13.23;;
53688;SDS011;39583;54.682;30.662;2022-08-21T14:17:12;13.55;;;4.15;;
53688;SDS011;39583;54.682;30.662;2022-08-21T14:19:51;9.85;;;4.53;;
53688;SDS011;39583;54.682;30.662;2022-08-21T14:22:28;9.80;;;3.10;;
53688;SDS011;39583;54.682;30.662;2022-08-21T14:25:03;11.77;;;5.40;;
53688;SDS011;39583;54.682;30.662;2022-08-21T14:27:40;11.35;;;3.50;;
53688;SDS011;39583;54.682;30.662;2022-08-21T14:33:11;12.45;;;3.75;;
53688;SDS011;39583;54.682;30.662;2022-08-21T14:35:42;6.72;;;2.80;;
53688;SDS011;39583;54.682;30.662;2022-08-21T14:38:13;13.55;;;4.10;;
53688;SDS011;39583;54.682;30.662;2022-08-21T14:40:42;9.40;;;2.70;;
53688;SDS011;39583;54.682;30.662;2022-08-21T14:43:10;12.25;;;4.18;;
53688;SDS011;39583;54.682;30.662;2022-08-21T14:45:36;11.05;;;2.60;;
53688;SDS011;39583;54.682;30.662;2022-08-21T14:48:06;15.70;;;4.43;;
53688;SDS011;39583;54.682;30.662;2022-08-21T14:50:33;9.90;;;4.07;;
53688;SDS011;39583;54.682;30.662;2022-08-21T14:53:00;8.73;;;4.03;;
53688;SDS011;39583;54.682;30.662;2022-08-21T14:55:27;12.50;;;3.45;;
53688;SDS011;39583;54.682;30.662;2022-08-21T14:57:54;14.20;;;4.35;;
53688;SDS011;39583;54.682;30.662;2022-08-21T15:00:24;10.85;;;4.18;;
53688;SDS011;39583;54.682;30.662;2022-08-21T15:02:51;10.88;;;4.57;;
53688;SDS011;39583;54.682;30.662;2022-08-21T15:05:18;7.75;;;2.58;;
53688;SDS011;39583;54.682;30.662;2022-08-21T15:07:46;10.43;;;3.70;;
53688;SDS011;39583;54.682;30.662;2022-08-21T15:10:14;18.30;;;4.38;;
53688;SDS011;39583;54.682;30.662;2022-08-21T15:12:40;17.10;;;5.10;;
53688;SDS011;39583;54.682;30.662;2022-08-21T15:15:06;12.32;;;4.10;;
53688;SDS011;39583;54.682;30.662;2022-08-21T15:17:34;12.20;;;3.72;;
53688;SDS011;39583;54.682;30.662;2022-08-21T15:20:01;9.93;;;4.30;;
53688;SDS011;39583;54.682;30.662;2022-08-21T15:22:28;14.98;;;3.70;;
53688;SDS011;39583;54.682;30.662;2022-08-21T15:24:54;10.65;;;4.30;;
53688;SDS011;39583;54.682;30.662;2022-08-21T15:27:21;13.13;;;5.85;;
53688;SDS011;39583;54.682;30.662;2022-08-21T15:29:47;13.10;;;5.07;;
53688;SDS011;39583;54.682;30.662;2022-08-21T15:32:20;8.27;;;4.25;;
53688;SDS011;39583;54.682;30.662;2022-08-21T15:34:51;9.60;;;4.60;;
53688;SDS011;39583;54.682;30.662;2022-08-21T15:37:18;10.15;;;4.97;;
53688;SDS011;39583;54.682;30.662;2022-08-21T15:39:45;7.30;;;3.85;;
53688;SDS011;39583;54.682;30.662;2022-08-21T15:42:11;11.80;;;4.68;;
53688;SDS011;39583;54.682;30.662;2022-08-21T15:44:39;10.63;;;4.28;;
53688;SDS011;39583;54.682;30.662;2022-08-21T15:47:09;8.98;;;3.33;;
53688;SDS011;39583;54.682;30.662;2022-08-21T15:49:41;12.18;;;4.18;;
53688;SDS011;39583;54.682;30.662;2022-08-21T15:52:11;13.70;;;3.88;;
53688;SDS011;39583;54.682;30.662;2022-08-21T15:54:41;9.82;;;4.25;;
53688;SDS011;39583;54.682;30.662;2022-08-21T15:57:13;13.88;;;4.50;;
53688;SDS011;39583;54.682;30.662;2022-08-21T15:59:43;12.38;;;4.97;;
53688;SDS011;39583;54.682;30.662;2022-08-21T16:02:17;10.00;;;4.32;;
53688;SDS011;39583;54.682;30.662;2022-08-21T16:04:47;13.00;;;3.88;;
53688;SDS011;39583;54.682;30.662;2022-08-21T16:07:13;13.88;;;4.53;;
53688;SDS011;39583;54.682;30.662;2022-08-21T16:09:40;12.32;;;4.65;;
53688;SDS011;39583;54.682;30.662;2022-08-21T16:12:06;16.48;;;4.45;;
53688;SDS011;39583;54.682;30.662;2022-08-21T16:14:36;9.55;;;3.25;;
53688;SDS011;39583;54.682;30.662;2022-08-21T16:17:04;9.93;;;4.68;;
53688;SDS011;39583;54.682;30.662;2022-08-21T16:19:31;9.07;;;3.95;;
53688;SDS011;39583;54.682;30.662;2022-08-21T16:21:59;14.48;;;4.40;;
53688;SDS011;39583;54.682;30.662;2022-08-21T16:24:25;11.23;;;4.03;;
53688;SDS011;39583;54.682;30.662;2022-08-21T16:26:51;12.45;;;4.30;;
53688;SDS011;39583;54.682;30.662;2022-08-21T16:29:18;11.40;;;4.55;;
53688;SDS011;39583;54.682;30.662;2022-08-21T16:31:46;10.45;;;3.75;;
53688;SDS011;39583;54.682;30.662;2022-08-21T16:34:15;11.75;;;3.70;;
53688;SDS011;39583;54.682;30.662;2022-08-21T16:36:45;16.42;;;3.85;;
53688;SDS011;39583;54.682;30.662;2022-08-21T16:39:12;8.73;;;3.55;;
53688;SDS011;39583;54.682;30.662;2022-08-21T16:41:38;15.57;;;3.10;;
53688;SDS011;39583;54.682;30.662;2022-08-21T16:44:05;9.52;;;3.28;;
53688;SDS011;39583;54.682;30.662;2022-08-21T16:46:33;8.63;;;3.00;;
53688;SDS011;39583;54.682;30.662;2022-08-21T16:49:04;11.70;;;3.15;;
53688;SDS011;39583;54.682;30.662;2022-08-21T16:51:30;11.18;;;3.95;;
53688;SDS011;39583;54.682;30.662;2022-08-21T16:53:57;13.35;;;3.40;;
53688;SDS011;39583;54.682;30.662;2022-08-21T16:56:24;10.07;;;3.90;;
53688;SDS011;39583;54.682;30.662;2022-08-21T16:58:52;15.05;;;3.88;;
53688;SDS011;39583;54.682;30.662;2022-08-21T17:01:21;9.75;;;3.42;;
53688;SDS011;39583;54.682;30.662;2022-08-21T17:03:51;9.88;;;3.42;;
53688;SDS011;39583;54.682;30.662;2022-08-21T17:06:18;10.23;;;4.00;;
53688;SDS011;39583;54.682;30.662;2022-08-21T17:08:46;8.40;;;3.30;;
53688;SDS011;39583;54.682;30.662;2022-08-21T17:11:34;10.40;;;4.05;;
53688;SDS011;39583;54.682;30.662;2022-08-21T17:14:02;24.40;;;3.22;;
53688;SDS011;39583;54.682;30.662;2022-08-21T17:16:39;6.55;;;2.88;;
53688;SDS011;39583;54.682;30.662;2022-08-21T17:19:12;9.80;;;3.58;;
53688;SDS011;39583;54.682;30.662;2022-08-21T17:21:38;10.80;;;3.55;;
53688;SDS011;39583;54.682;30.662;2022-08-21T17:24:05;20.17;;;4.03;;
53688;SDS011;39583;54.682;30.662;2022-08-21T17:26:31;12.32;;;3.00;;
53688;SDS011;39583;54.682;30.662;2022-08-21T17:28:58;17.50;;;3.63;;
53688;SDS011;39583;54.682;30.662;2022-08-21T17:31:31;8.48;;;3.33;;
53688;SDS011;39583;54.682;30.662;2022-08-21T17:36:24;15.10;;;3.13;;
53688;SDS011;39583;54.682;30.662;2022-08-21T17:38:53;14.82;;;3.40;;
53688;SDS011;39583;54.682;30.662;2022-08-21T17:41:20;12.65;;;2.83;;
53688;SDS011;39583;54.682;30.662;2022-08-21T17:43:47;14.13;;;3.63;;
53688;SDS011;39583;54.682;30.662;2022-08-21T17:46:18;13.80;;;3.63;;
53688;SDS011;39583;54.682;30.662;2022-08-21T17:48:49;7.68;;;2.83;;
53688;SDS011;39583;54.682;30.662;2022-08-21T17:51:16;15.27;;;3.65;;
53688;SDS011;39583;54.682;30.662;2022-08-21T17:53:43;16.23;;;3.45;;
53688;SDS011;39583;54.682;30.662;2022-08-21T17:56:10;14.98;;;3.00;;
53688;SDS011;39583;54.682;30.662;2022-08-21T17:58:41;8.57;;;3.47;;
53688;SDS011;39583;54.682;30.662;2022-08-21T18:01:10;7.90;;;3.17;;
53688;SDS011;39583;54.682;30.662;2022-08-21T18:03:37;10.50;;;3.30;;
53688;SDS011;39583;54.682;30.662;2022-08-21T18:06:06;9.48;;;3.22;;
53688;SDS011;39583;54.682;30.662;2022-08-21T18:08:33;15.35;;;3.55;;
53688;SDS011;39583;54.682;30.662;2022-08-21T18:11:02;10.25;;;3.38;;
53688;SDS011;39583;54.682;30.662;2022-08-21T18:13:30;11.00;;;3.42;;
53688;SDS011;39583;54.682;30.662;2022-08-21T18:15:59;12.55;;;4.03;;
53688;SDS011;39583;54.682;30.662;2022-08-21T18:18:26;12.40;;;4.07;;
53688;SDS011;39583;54.682;30.662;2022-08-21T18:20:57;14.10;;;4.45;;
53688;SDS011;39583;54.682;30.662;2022-08-21T18:23:24;8.65;;;3.78;;
53688;SDS011;39583;54.682;30.662;2022-08-21T18:25:52;12.68;;;3.67;;
53688;SDS011;39583;54.682;30.662;2022-08-21T18:28:21;8.05;;;3.65;;
53688;SDS011;39583;54.682;30.662;2022-08-21T18:30:48;9.50;;;3.63;;
53688;SDS011;39583;54.682;30.662;2022-08-21T18:33:16;10.45;;;3.83;;
53688;SDS011;39583;54.682;30.662;2022-08-21T18:35:43;10.25;;;3.38;;
53688;SDS011;39583;54.682;30.662;2022-08-21T18:38:10;10.80;;;3.90;;
